Os — LHFA — position and weather

sailwx.info

Track history (hours):
 
Tides and Currents Weather Stations Pressure Air Temp Water Temp Dewpoint Dewpoint Depression Visibility Wind Speed Wind Dir Waves Ship Positions

Os

Last reported at 2017-Apr-24 03:30 UTC. Time now 2017-Apr-24 03:37 UTC.
Position N 62°37' E 006°17'.

Length 64 m; draft 3.3 m.

Type: Passenger vessel. MMSI: 257066700.

Date/timePositionNaut miles runAvg speedWind from/ knotsBaromVisibWave heightAir tempDewpointWater temp
2017-Apr-24 03:30N 62°37' E 006°17'1 2.7
2017-Apr-24 03:00N 62°37' E 006°14'2 3.4
2017-Apr-24 02:30N 62°38' E 006°17'0 0.0
2017-Apr-24 02:00N 62°38' E 006°17'0 0.0
2017-Apr-24 01:30N 62°38' E 006°17'0 0.0
2017-Apr-24 01:00N 62°38' E 006°17'0 0.0
2017-Apr-24 00:30N 62°38' E 006°17'0 0.0
2017-Apr-24 00:00N 62°38' E 006°17'0 0.0
2017-Apr-23 23:30N 62°38' E 006°17'0 0.0
2017-Apr-23 23:00N 62°38' E 006°17'0 0.0
2017-Apr-23 22:30N 62°38' E 006°17'0 0.0
2017-Apr-23 22:00N 62°38' E 006°17'3 5.2
2017-Apr-23 21:29N 62°36' E 006°17'0 0.0
2017-Apr-23 20:59N 62°36' E 006°17'1 1.3
2017-Apr-23 20:30N 62°36' E 006°16'2 4.2
2017-Apr-23 20:00N 62°38' E 006°17'2 3.9
2017-Apr-23 19:30N 62°36' E 006°16'2 3.9
2017-Apr-23 19:00N 62°38' E 006°17'2 4.0
2017-Apr-23 18:30N 62°36' E 006°16'2 3.9
2017-Apr-23 17:59N 62°38' E 006°17'2 3.7
2017-Apr-23 17:30N 62°36' E 006°16'2 3.7
2017-Apr-23 17:00N 62°38' E 006°17'2 4.3
2017-Apr-23 16:30N 62°36' E 006°16'2 4.1
2017-Apr-23 15:59N 62°38' E 006°17'2 4.8
2017-Apr-23 15:30N 62°36' E 006°17'2 4.4
2017-Apr-23 15:00N 62°38' E 006°17'8 8.2
2017-Apr-23 14:00N 62°31' E 006°09'4 8.4
2017-Apr-23 13:30N 62°27' E 006°06'5 9.7
2017-Apr-23 13:00N 62°27' E 006°17'2 3.7
2017-Apr-23 12:27N 62°26' E 006°21'0 0.0
2017-Apr-23 11:58N 62°26' E 006°21'0 0.0
2017-Apr-23 11:31N 62°26' E 006°21'0 0.0
2017-Apr-23 10:58N 62°26' E 006°21'0 0.0
2017-Apr-23 10:31N 62°26' E 006°21'0 0.0
2017-Apr-23 09:58N 62°26' E 006°21'0 0.0
2017-Apr-23 09:28N 62°26' E 006°21'0 0.0
2017-Apr-23 08:58N 62°26' E 006°21'0 0.0
2017-Apr-23 08:28N 62°26' E 006°21'0 0.0
2017-Apr-23 07:58N 62°26' E 006°21'0 0.0
2017-Apr-23 07:28N 62°26' E 006°21'0 0.0
2017-Apr-23 06:58N 62°26' E 006°21'0 0.0
2017-Apr-23 06:31N 62°26' E 006°21'0 0.0
2017-Apr-23 06:01N 62°26' E 006°21'0 0.0
2017-Apr-23 05:30N 62°26' E 006°21'0 0.0
2017-Apr-23 05:00N 62°26' E 006°21'0 0.0
2017-Apr-23 04:31N 62°26' E 006°21'0 0.0
2017-Apr-23 04:00N 62°26' E 006°21'0 0.0
2017-Apr-23 03:27N 62°26' E 006°21'0 0.0
2017-Apr-23 03:01N 62°26' E 006°21'0 0.0
2017-Apr-23 02:27N 62°26' E 006°21'0 0.0
2017-Apr-23 02:01N 62°26' E 006°21'0 0.0
2017-Apr-23 01:28N 62°26' E 006°21'0 0.0
2017-Apr-23 01:00N 62°26' E 006°21'0 0.0
2017-Apr-23 00:30N 62°26' E 006°21'0 0.0
2017-Apr-23 00:00N 62°26' E 006°21'0 0.0
2017-Apr-22 23:27N 62°26' E 006°21'0 0.0
2017-Apr-22 23:01N 62°26' E 006°21'0 0.0
2017-Apr-22 22:31N 62°26' E 006°21'0 0.0
2017-Apr-22 22:00N 62°26' E 006°21'0 0.0
2017-Apr-22 21:30N 62°26' E 006°21'0 0.0
2017-Apr-22 21:00N 62°26' E 006°21'0 0.0
2017-Apr-22 20:30N 62°26' E 006°21'0 0.0
2017-Apr-22 20:00N 62°26' E 006°21'0 0.0
2017-Apr-22 19:30N 62°26' E 006°21'0 0.0
2017-Apr-22 19:00N 62°26' E 006°21'0 0.0
2017-Apr-22 18:30N 62°26' E 006°21'0 0.0
2017-Apr-22 18:00N 62°26' E 006°21'0 0.0
2017-Apr-22 17:30N 62°26' E 006°21'0 0.0
2017-Apr-22 17:00N 62°26' E 006°21'0 0.0
2017-Apr-22 16:30N 62°26' E 006°21'0 0.0
2017-Apr-22 16:00N 62°26' E 006°21'0 0.0
2017-Apr-22 15:31N 62°26' E 006°21'0 0.0
2017-Apr-22 15:00N 62°26' E 006°21'0 0.0
2017-Apr-22 14:30N 62°26' E 006°21'0 0.0
2017-Apr-22 13:30N 62°26' E 006°21'0 0.0
2017-Apr-22 13:00N 62°26' E 006°21'0 0.0
2017-Apr-22 12:30N 62°26' E 006°21'0 0.0
2017-Apr-22 12:00N 62°26' E 006°21'0 0.0
2017-Apr-22 11:30N 62°26' E 006°21'0 0.0
2017-Apr-22 11:00N 62°26' E 006°21'0 0.0
2017-Apr-22 10:30N 62°26' E 006°21'0 0.0
2017-Apr-22 10:00N 62°26' E 006°21'0 0.0
2017-Apr-22 09:30N 62°26' E 006°21'0 0.0
2017-Apr-22 09:00N 62°26' E 006°21'0 0.0
2017-Apr-22 08:30N 62°26' E 006°21'0 0.0
2017-Apr-22 08:00N 62°26' E 006°21'0 0.0
2017-Apr-22 07:30N 62°26' E 006°21'0 0.0
2017-Apr-22 07:00N 62°26' E 006°21'0 0.0
2017-Apr-22 06:30N 62°26' E 006°21'0 0.0
2017-Apr-22 06:00N 62°26' E 006°21'0 0.0
2017-Apr-22 05:30N 62°26' E 006°21'0 0.0
2017-Apr-22 05:00N 62°26' E 006°21'0 0.0
2017-Apr-22 04:30N 62°26' E 006°21'0 0.0
2017-Apr-22 04:00N 62°26' E 006°21'0 0.0
2017-Apr-22 03:30N 62°26' E 006°21'0 0.0
2017-Apr-22 03:00N 62°26' E 006°21'0 0.0
2017-Apr-22 02:30N 62°26' E 006°21'0 0.0
2017-Apr-22 02:00N 62°26' E 006°21'0 0.0
2017-Apr-22 01:30N 62°26' E 006°21'0 0.0
2017-Apr-22 01:00N 62°26' E 006°21'0 0.0
2017-Apr-22 00:30N 62°26' E 006°21'0 0.0
2017-Apr-22 00:00N 62°26' E 006°21'0 0.0
2017-Apr-21 23:30N 62°26' E 006°21'0 0.0
2017-Apr-21 23:00N 62°26' E 006°21'0 0.0
2017-Apr-21 22:30N 62°26' E 006°21'0 0.0
2017-Apr-21 22:00N 62°26' E 006°21'0 0.0
2017-Apr-21 21:30N 62°26' E 006°21'0 0.0
2017-Apr-21 21:00N 62°26' E 006°21'0 0.0
2017-Apr-21 20:30N 62°26' E 006°21'0 0.0
2017-Apr-21 20:00N 62°26' E 006°21'0 0.0
2017-Apr-21 19:30N 62°26' E 006°21'0 0.0
2017-Apr-21 19:00N 62°26' E 006°21'0 0.0
2017-Apr-21 18:30N 62°26' E 006°21'1 2.9
2017-Apr-21 18:00N 62°26' E 006°18'510.3
2017-Apr-21 17:30N 62°27' E 006°07'4 8.8
2017-Apr-21 17:00N 62°31' E 006°09'510.7
2017-Apr-21 16:30N 62°36' E 006°16'3 5.2
2017-Apr-21 16:00N 62°38' E 006°17'2 3.5
2017-Apr-21 15:31N 62°37' E 006°15'2 3.2
2017-Apr-21 14:59N 62°38' E 006°17'2 3.4
2017-Apr-21 14:30N 62°37' E 006°15'0 0.2
2017-Apr-21 13:30N 62°37' E 006°15'2 3.3
2017-Apr-21 13:00N 62°38' E 006°17'2 3.3
2017-Apr-21 12:30N 62°37' E 006°15'2 3.3
2017-Apr-21 12:00N 62°38' E 006°17'2 3.4
2017-Apr-21 11:30N 62°37' E 006°15'2 3.3
2017-Apr-21 11:00N 62°38' E 006°17'2 3.3
2017-Apr-21 10:30N 62°37' E 006°15'2 3.1
2017-Apr-21 09:59N 62°36' E 006°17'0 0.0
2017-Apr-21 09:29N 62°36' E 006°17'3 5.6
2017-Apr-21 09:00N 62°38' E 006°17'2 3.5
2017-Apr-21 08:30N 62°37' E 006°16'2 3.4
2017-Apr-21 08:00N 62°38' E 006°17'2 3.5
2017-Apr-21 07:30N 62°37' E 006°15'2 3.3
2017-Apr-21 07:00N 62°38' E 006°17'1 2.8
2017-Apr-21 06:30N 62°37' E 006°17'2 3.2
2017-Apr-21 06:00N 62°37' E 006°13'1 2.9
2017-Apr-21 05:30N 62°36' E 006°16'2 4.1
2017-Apr-21 05:00N 62°38' E 006°17'2 3.4
2017-Apr-21 04:31N 62°37' E 006°15'1 1.5
2017-Apr-21 03:59N 62°37' E 006°14'2 3.1
2017-Apr-21 03:30N 62°37' E 006°17'1 2.9
2017-Apr-21 03:00N 62°37' E 006°14'2 3.4
2017-Apr-21 02:29N 62°38' E 006°17'0 0.0
2017-Apr-21 01:59N 62°38' E 006°17'0 0.0
2017-Apr-21 01:29N 62°38' E 006°17'0 0.0
2017-Apr-21 00:59N 62°38' E 006°17'0 0.0
2017-Apr-21 00:29N 62°38' E 006°17'0 0.0
2017-Apr-20 23:59N 62°38' E 006°17'0 0.0
2017-Apr-20 23:29N 62°38' E 006°17'0 0.0
2017-Apr-20 22:59N 62°38' E 006°17'0 0.0
2017-Apr-20 22:29N 62°38' E 006°17'0 0.0
2017-Apr-20 21:59N 62°38' E 006°17'2 3.4
2017-Apr-20 21:30N 62°37' E 006°15'1 1.4
2017-Apr-20 21:00N 62°37' E 006°13'2 3.6
2017-Apr-20 20:30N 62°37' E 006°17'2 3.5
2017-Apr-20 20:00N 62°37' E 006°13'2 3.5
2017-Apr-20 19:30N 62°37' E 006°17'2 3.4
2017-Apr-20 18:59N 62°37' E 006°13'2 3.5
2017-Apr-20 18:30N 62°37' E 006°17'1 2.1
2017-Apr-20 18:00N 62°38' E 006°17'2 3.3
2017-Apr-20 17:30N 62°37' E 006°15'2 3.2
2017-Apr-20 17:00N 62°38' E 006°17'2 3.4
2017-Apr-20 16:30N 62°37' E 006°15'2 3.4
2017-Apr-20 16:00N 62°38' E 006°17'2 4.4
2017-Apr-20 15:30N 62°36' E 006°16'2 4.3
2017-Apr-20 14:58N 62°38' E 006°17'0 0.0
2017-Apr-20 13:59N 62°38' E 006°17'2 3.4
2017-Apr-20 13:30N 62°37' E 006°15'2 3.2
2017-Apr-20 13:00N 62°38' E 006°17'2 3.5
2017-Apr-20 12:30N 62°37' E 006°15'2 3.4
2017-Apr-20 12:00N 62°38' E 006°17'2 3.2
2017-Apr-20 11:30N 62°37' E 006°15'2 3.3
2017-Apr-20 11:00N 62°38' E 006°17'2 3.2
2017-Apr-20 10:30N 62°37' E 006°15'1 2.8
2017-Apr-20 09:59N 62°36' E 006°17'0 0.0
2017-Apr-20 09:29N 62°36' E 006°17'3 5.5
2017-Apr-20 09:00N 62°38' E 006°17'2 3.2
2017-Apr-20 08:30N 62°37' E 006°15'2 3.3
2017-Apr-20 08:00N 62°38' E 006°17'2 3.4
2017-Apr-20 07:30N 62°37' E 006°15'2 3.4
2017-Apr-20 07:00N 62°38' E 006°17'1 2.9
2017-Apr-20 06:30N 62°37' E 006°17'2 3.1
2017-Apr-20 05:59N 62°37' E 006°13'1 2.8
2017-Apr-20 05:30N 62°36' E 006°16'2 3.7
2017-Apr-20 05:00N 62°38' E 006°17'2 3.4
2017-Apr-20 04:31N 62°37' E 006°16'1 1.7
2017-Apr-20 04:00N 62°37' E 006°14'1 2.7
2017-Apr-20 03:30N 62°37' E 006°17'1 2.8
2017-Apr-20 03:00N 62°37' E 006°14'2 3.1
2017-Apr-20 02:28N 62°38' E 006°17'0 0.0
2017-Apr-20 02:01N 62°38' E 006°17'0 0.0
2017-Apr-20 01:28N 62°38' E 006°17'0 0.0
2017-Apr-20 00:58N 62°38' E 006°17'0 0.0
2017-Apr-20 00:28N 62°38' E 006°17'0 0.0
2017-Apr-19 23:58N 62°38' E 006°17'0 0.0
2017-Apr-19 23:28N 62°38' E 006°17'0 0.0
2017-Apr-19 22:58N 62°38' E 006°17'0 0.0
2017-Apr-19 22:28N 62°38' E 006°17'0 0.0
2017-Apr-19 21:58N 62°38' E 006°17'2 3.7
2017-Apr-19 21:30N 62°37' E 006°14'1 1.1
2017-Apr-19 21:00N 62°37' E 006°13'2 3.4
2017-Apr-19 20:30N 62°37' E 006°17'2 3.3
2017-Apr-19 20:00N 62°37' E 006°13'2 3.3
2017-Apr-19 19:30N 62°37' E 006°17'2 3.4
2017-Apr-19 19:00N 62°37' E 006°13'2 3.3
2017-Apr-19 18:30N 62°37' E 006°17'1 2.8
2017-Apr-19 18:00N 62°38' E 006°17'2 4.5
2017-Apr-19 17:30N 62°36' E 006°16'2 4.2
2017-Apr-19 16:58N 62°38' E 006°17'2 3.6
2017-Apr-19 16:30N 62°37' E 006°15'2 3.3
2017-Apr-19 16:00N 62°38' E 006°17'2 3.4
2017-Apr-19 15:30N 62°37' E 006°15'2 3.3
2017-Apr-19 15:00N 62°38' E 006°17'2 3.4
2017-Apr-19 14:30N 62°37' E 006°15'0 0.1
2017-Apr-19 13:30N 62°37' E 006°15'2 3.4
2017-Apr-19 13:00N 62°38' E 006°17'2 3.3
2017-Apr-19 12:30N 62°37' E 006°15'2 3.2
2017-Apr-19 12:00N 62°38' E 006°17'2 3.3
2017-Apr-19 11:30N 62°37' E 006°15'2 3.0
2017-Apr-19 10:58N 62°36' E 006°17'0 0.3
2017-Apr-19 10:29N 62°36' E 006°17'4 9.2
2017-Apr-19 10:00N 62°32' E 006°12'4 7.8
2017-Apr-19 09:30N 62°35' E 006°15'3 6.0
2017-Apr-19 09:00N 62°38' E 006°17'2 3.3
2017-Apr-19 08:30N 62°37' E 006°15'2 3.2
2017-Apr-19 08:00N 62°38' E 006°17'2 3.6
2017-Apr-19 07:30N 62°37' E 006°16'2 3.4
2017-Apr-19 07:00N 62°38' E 006°17'2 3.1
2017-Apr-19 06:30N 62°37' E 006°17'2 2.9
2017-Apr-19 05:59N 62°37' E 006°13'1 2.9
2017-Apr-19 05:30N 62°36' E 006°16'2 3.9
2017-Apr-19 05:00N 62°38' E 006°17'2 3.4
2017-Apr-19 04:30N 62°37' E 006°15'1 1.9
2017-Apr-19 04:00N 62°37' E 006°13'2 3.4
2017-Apr-19 03:30N 62°37' E 006°17'2 3.4
2017-Apr-19 03:00N 62°37' E 006°13'2 3.8
2017-Apr-19 02:30N 62°38' E 006°17'0 0.0
2017-Apr-19 02:01N 62°38' E 006°17'0 0.0
2017-Apr-19 01:30N 62°38' E 006°17'0 0.0
2017-Apr-19 01:00N 62°38' E 006°17'0 0.0
2017-Apr-19 00:28N 62°38' E 006°17'0 0.0
2017-Apr-19 00:00N 62°38' E 006°17'0 0.0
2017-Apr-18 23:27N 62°38' E 006°17'0 0.0
2017-Apr-18 23:01N 62°38' E 006°17'0 0.0
2017-Apr-18 22:30N 62°38' E 006°17'0 0.0
2017-Apr-18 22:00N 62°38' E 006°17'2 3.3
2017-Apr-18 21:30N 62°37' E 006°14'1 1.0
2017-Apr-18 20:59N 62°37' E 006°13'2 3.6
2017-Apr-18 20:30N 62°37' E 006°17'2 3.4
2017-Apr-18 20:00N 62°37' E 006°13'2 3.4
2017-Apr-18 19:30N 62°37' E 006°17'2 3.4
2017-Apr-18 18:59N 62°37' E 006°13'2 3.5
2017-Apr-18 18:30N 62°37' E 006°17'1 2.1
2017-Apr-18 18:00N 62°38' E 006°17'2 3.3
2017-Apr-18 17:30N 62°37' E 006°15'2 3.4
2017-Apr-18 17:00N 62°38' E 006°17'2 3.2
2017-Apr-18 16:30N 62°37' E 006°15'2 3.4
2017-Apr-18 16:00N 62°38' E 006°17'2 3.5
2017-Apr-18 15:30N 62°37' E 006°16'2 3.6
2017-Apr-18 15:00N 62°38' E 006°17'2 3.3
2017-Apr-18 14:30N 62°37' E 006°16'0 0.2
2017-Apr-18 13:30N 62°37' E 006°15'2 3.2
2017-Apr-18 13:00N 62°38' E 006°17'2 3.2
2017-Apr-18 12:30N 62°37' E 006°15'2 3.2
2017-Apr-18 12:00N 62°38' E 006°17'2 3.3
2017-Apr-18 11:30N 62°37' E 006°15'2 3.3
2017-Apr-18 11:00N 62°38' E 006°17'2 3.3
2017-Apr-18 10:30N 62°37' E 006°15'1 2.8
2017-Apr-18 10:00N 62°36' E 006°17'0 0.1
2017-Apr-18 09:28N 62°36' E 006°17'3 5.5
2017-Apr-18 09:00N 62°38' E 006°17'2 3.1
2017-Apr-18 08:30N 62°37' E 006°15'2 3.2
2017-Apr-18 08:00N 62°38' E 006°17'2 3.3
2017-Apr-18 07:30N 62°37' E 006°15'2 3.3
2017-Apr-18 07:00N 62°38' E 006°17'1 3.0
2017-Apr-18 06:30N 62°37' E 006°17'2 3.3
2017-Apr-18 05:59N 62°37' E 006°13'1 2.9
2017-Apr-18 05:30N 62°36' E 006°16'2 4.0
2017-Apr-18 05:00N 62°38' E 006°17'2 3.3
2017-Apr-18 04:30N 62°37' E 006°15'1 1.6
2017-Apr-18 04:00N 62°37' E 006°13'2 3.3
2017-Apr-18 03:30N 62°37' E 006°17'2 3.1
2017-Apr-18 03:00N 62°37' E 006°13'2 3.7
2017-Apr-18 02:29N 62°38' E 006°17'0 0.0
2017-Apr-18 01:59N 62°38' E 006°17'0 0.0
2017-Apr-18 01:29N 62°38' E 006°17'0 0.0
2017-Apr-18 00:59N 62°38' E 006°17'0 0.0
2017-Apr-18 00:29N 62°38' E 006°17'0 0.0
2017-Apr-17 23:59N 62°38' E 006°17'0 0.0
2017-Apr-17 23:29N 62°38' E 006°17'0 0.0
2017-Apr-17 22:59N 62°38' E 006°17'0 0.0
2017-Apr-17 22:29N 62°38' E 006°17'2 3.4
2017-Apr-17 22:00N 62°37' E 006°14'2 3.9
2017-Apr-17 21:29N 62°36' E 006°17'0 0.0
2017-Apr-17 20:59N 62°36' E 006°17'1 1.6
2017-Apr-17 20:30N 62°36' E 006°16'2 4.0
2017-Apr-17 20:00N 62°38' E 006°17'2 4.1
2017-Apr-17 19:29N 62°36' E 006°16'2 4.1
2017-Apr-17 18:59N 62°38' E 006°17'2 4.5
2017-Apr-17 18:30N 62°36' E 006°16'2 4.3
2017-Apr-17 18:00N 62°38' E 006°17'2 4.1
2017-Apr-17 17:30N 62°36' E 006°16'2 4.0
2017-Apr-17 17:00N 62°38' E 006°17'2 3.6
2017-Apr-17 16:29N 62°36' E 006°16'2 3.7
2017-Apr-17 15:59N 62°38' E 006°17'2 3.4
2017-Apr-17 15:30N 62°37' E 006°15'2 3.3
2017-Apr-17 15:00N 62°38' E 006°17'0 0.0
2017-Apr-17 14:00N 62°38' E 006°17'2 3.6
2017-Apr-17 13:30N 62°36' E 006°16'2 3.6
2017-Apr-17 13:00N 62°38' E 006°17'2 3.5
2017-Apr-17 12:30N 62°37' E 006°16'2 3.2
2017-Apr-17 12:00N 62°38' E 006°17'2 3.3
2017-Apr-17 11:30N 62°37' E 006°15'2 3.3
2017-Apr-17 11:00N 62°38' E 006°17'3 5.3
2017-Apr-17 10:30N 62°36' E 006°17'0 0.0
2017-Apr-17 09:59N 62°36' E 006°17'1 1.5
2017-Apr-17 09:30N 62°36' E 006°16'2 4.0
2017-Apr-17 09:00N 62°38' E 006°17'2 4.0
2017-Apr-17 08:30N 62°36' E 006°16'2 4.0
2017-Apr-17 08:00N 62°38' E 006°17'2 3.8
2017-Apr-17 07:29N 62°36' E 006°16'2 3.8
2017-Apr-17 06:59N 62°38' E 006°17'2 4.3
2017-Apr-17 06:30N 62°36' E 006°16'2 4.1
2017-Apr-17 05:59N 62°38' E 006°17'0 0.0
2017-Apr-17 05:29N 62°38' E 006°17'0 0.0
2017-Apr-17 04:59N 62°38' E 006°17'0 0.0
2017-Apr-17 04:29N 62°38' E 006°17'0 0.0
2017-Apr-17 03:59N 62°38' E 006°17'0 0.0
2017-Apr-17 03:29N 62°38' E 006°17'0 0.0
2017-Apr-17 02:59N 62°38' E 006°17'0 0.0
2017-Apr-17 02:29N 62°38' E 006°17'0 0.0
2017-Apr-17 01:59N 62°38' E 006°17'0 0.0
2017-Apr-17 01:29N 62°38' E 006°17'0 0.0
2017-Apr-17 00:59N 62°38' E 006°17'0 0.0
2017-Apr-17 00:29N 62°38' E 006°17'0 0.0
2017-Apr-16 23:59N 62°38' E 006°17'0 0.0
2017-Apr-16 23:29N 62°38' E 006°17'0 0.0
2017-Apr-16 22:59N 62°38' E 006°17'0 0.0
2017-Apr-16 22:29N 62°38' E 006°17'2 3.4
2017-Apr-16 22:00N 62°37' E 006°14'2 4.0
2017-Apr-16 21:30N 62°36' E 006°17'0 0.0
2017-Apr-16 21:00N 62°36' E 006°17'1 1.5
2017-Apr-16 20:30N 62°36' E 006°16'2 4.1
2017-Apr-16 20:00N 62°38' E 006°17'2 4.3
2017-Apr-16 19:30N 62°36' E 006°16'2 4.3
2017-Apr-16 19:00N 62°38' E 006°17'2 4.2
2017-Apr-16 18:31N 62°36' E 006°16'2 4.1
2017-Apr-16 18:00N 62°38' E 006°17'2 4.2
2017-Apr-16 17:30N 62°36' E 006°16'2 4.0
2017-Apr-16 17:00N 62°38' E 006°17'2 4.5
2017-Apr-16 16:30N 62°36' E 006°16'2 4.4
2017-Apr-16 16:00N 62°38' E 006°17'2 3.8
2017-Apr-16 15:29N 62°36' E 006°16'2 4.0
2017-Apr-16 15:00N 62°38' E 006°17'2 4.3
2017-Apr-16 14:30N 62°36' E 006°16'0 0.1
2017-Apr-16 13:30N 62°36' E 006°16'2 4.2
2017-Apr-16 13:00N 62°38' E 006°17'2 3.6
2017-Apr-16 12:30N 62°37' E 006°16'2 3.6
2017-Apr-16 12:00N 62°38' E 006°17'2 3.5
2017-Apr-16 11:30N 62°36' E 006°16'2 3.6
2017-Apr-16 10:59N 62°38' E 006°17'3 5.3
2017-Apr-16 10:29N 62°36' E 006°17'0 0.0
2017-Apr-16 09:59N 62°36' E 006°17'1 1.4
2017-Apr-16 09:30N 62°36' E 006°16'2 4.2
2017-Apr-16 09:00N 62°38' E 006°17'2 3.7
2017-Apr-16 08:30N 62°36' E 006°16'2 3.8
2017-Apr-16 08:00N 62°38' E 006°17'2 3.7
2017-Apr-16 07:30N 62°36' E 006°16'2 3.7
2017-Apr-16 07:00N 62°38' E 006°17'2 4.0
2017-Apr-16 06:30N 62°36' E 006°16'2 3.9
2017-Apr-16 05:59N 62°38' E 006°17'0 0.0
2017-Apr-16 05:29N 62°38' E 006°17'0 0.0
2017-Apr-16 04:59N 62°38' E 006°17'0 0.0
2017-Apr-16 04:29N 62°38' E 006°17'0 0.0
2017-Apr-16 03:59N 62°38' E 006°17'0 0.0
2017-Apr-16 03:29N 62°38' E 006°17'0 0.0
2017-Apr-16 02:58N 62°38' E 006°17'0 0.0
2017-Apr-16 02:28N 62°38' E 006°17'0 0.0
2017-Apr-16 01:58N 62°38' E 006°17'0 0.0
2017-Apr-16 01:28N 62°38' E 006°17'0 0.0
2017-Apr-16 00:58N 62°38' E 006°17'0 0.0
2017-Apr-16 00:28N 62°38' E 006°17'0 0.0
2017-Apr-15 23:58N 62°38' E 006°17'0 0.0
2017-Apr-15 23:28N 62°38' E 006°17'0 0.0
2017-Apr-15 22:58N 62°38' E 006°17'0 0.0
2017-Apr-15 22:28N 62°38' E 006°17'0 0.0
2017-Apr-15 21:59N 62°38' E 006°17'2 4.5
2017-Apr-15 21:30N 62°36' E 006°16'2 4.3
2017-Apr-15 21:00N 62°38' E 006°17'2 4.1
2017-Apr-15 20:30N 62°36' E 006°16'2 4.2
2017-Apr-15 20:00N 62°38' E 006°17'2 4.2
2017-Apr-15 19:30N 62°36' E 006°16'2 4.2
2017-Apr-15 19:00N 62°38' E 006°17'2 4.0
2017-Apr-15 18:30N 62°36' E 006°16'2 4.1
2017-Apr-15 18:00N 62°38' E 006°17'2 3.4
2017-Apr-15 17:30N 62°37' E 006°15'2 3.3
2017-Apr-15 17:00N 62°38' E 006°17'3 5.5
2017-Apr-15 16:31N 62°36' E 006°17'0 0.0
2017-Apr-15 16:01N 62°36' E 006°17'1 1.1
2017-Apr-15 15:30N 62°36' E 006°16'2 4.4
2017-Apr-15 15:00N 62°38' E 006°17'2 4.3
2017-Apr-15 14:30N 62°36' E 006°16'0 0.1
2017-Apr-15 13:30N 62°36' E 006°16'2 4.0
2017-Apr-15 13:01N 62°38' E 006°17'2 3.2
2017-Apr-15 12:30N 62°37' E 006°16'2 3.2
2017-Apr-15 12:00N 62°38' E 006°17'2 3.5
2017-Apr-15 11:30N 62°37' E 006°14'2 3.5
2017-Apr-15 11:00N 62°38' E 006°17'4 7.8
2017-Apr-15 10:30N 62°34' E 006°14'1 2.6
2017-Apr-15 10:00N 62°33' E 006°13'4 7.0
2017-Apr-15 09:30N 62°36' E 006°16'2 3.8
2017-Apr-15 08:59N 62°38' E 006°17'2 4.6
2017-Apr-15 08:31N 62°36' E 006°16'2 4.4
2017-Apr-15 08:00N 62°38' E 006°17'2 3.7
2017-Apr-15 07:30N 62°36' E 006°16'2 3.8
2017-Apr-15 07:00N 62°38' E 006°17'2 3.9
2017-Apr-15 06:30N 62°36' E 006°16'2 3.9
2017-Apr-15 06:00N 62°38' E 006°17'2 3.9
2017-Apr-15 05:30N 62°36' E 006°16'2 4.0
2017-Apr-15 05:00N 62°38' E 006°17'0 0.0
2017-Apr-15 04:30N 62°38' E 006°17'0 0.0
2017-Apr-15 04:00N 62°38' E 006°17'0 0.0
2017-Apr-15 03:30N 62°38' E 006°17'0 0.0
2017-Apr-15 02:59N 62°38' E 006°17'0 0.0
2017-Apr-15 02:29N 62°38' E 006°17'0 0.0
2017-Apr-15 01:59N 62°38' E 006°17'0 0.0
2017-Apr-15 01:29N 62°38' E 006°17'0 0.0
2017-Apr-15 00:59N 62°38' E 006°17'0 0.0
2017-Apr-15 00:29N 62°38' E 006°17'0 0.0
2017-Apr-14 23:59N 62°38' E 006°17'0 0.0
2017-Apr-14 23:29N 62°38' E 006°17'0 0.0
2017-Apr-14 22:59N 62°38' E 006°17'0 0.0
2017-Apr-14 22:29N 62°38' E 006°17'0 0.0
2017-Apr-14 21:59N 62°38' E 006°17'3 5.4
2017-Apr-14 21:29N 62°36' E 006°17'0 0.0
2017-Apr-14 20:59N 62°36' E 006°17'1 1.4
2017-Apr-14 20:31N 62°36' E 006°16'2 4.2
2017-Apr-14 20:00N 62°38' E 006°17'2 4.0
2017-Apr-14 19:30N 62°36' E 006°16'2 4.1
2017-Apr-14 19:00N 62°38' E 006°17'2 3.9
2017-Apr-14 18:30N 62°36' E 006°16'2 3.9
2017-Apr-14 18:00N 62°38' E 006°17'2 4.0
2017-Apr-14 17:30N 62°36' E 006°16'2 4.0
2017-Apr-14 17:00N 62°38' E 006°17'2 3.9
2017-Apr-14 16:30N 62°36' E 006°16'2 3.8
2017-Apr-14 15:59N 62°38' E 006°17'2 4.2
2017-Apr-14 15:30N 62°36' E 006°16'2 4.0
2017-Apr-14 15:00N 62°38' E 006°17'2 4.3
2017-Apr-14 14:30N 62°36' E 006°16'0 0.0
2017-Apr-14 13:30N 62°36' E 006°16'2 4.3
2017-Apr-14 13:00N 62°38' E 006°17'2 3.6
2017-Apr-14 12:30N 62°36' E 006°16'2 3.6
2017-Apr-14 12:00N 62°38' E 006°17'2 3.5
2017-Apr-14 11:30N 62°37' E 006°16'2 3.5
2017-Apr-14 11:00N 62°38' E 006°17'3 5.1
2017-Apr-14 10:29N 62°36' E 006°17'0 0.0
2017-Apr-14 09:59N 62°36' E 006°17'1 1.3
2017-Apr-14 09:30N 62°36' E 006°16'2 4.3
2017-Apr-14 09:00N 62°38' E 006°17'2 4.0
2017-Apr-14 08:30N 62°36' E 006°16'2 4.0
2017-Apr-14 07:59N 62°38' E 006°17'2 3.8
2017-Apr-14 07:30N 62°36' E 006°16'2 3.6
2017-Apr-14 07:00N 62°38' E 006°17'2 3.9
2017-Apr-14 06:30N 62°36' E 006°16'2 3.6
2017-Apr-14 05:58N 62°38' E 006°17'0 0.0
2017-Apr-14 05:28N 62°38' E 006°17'0 0.0
2017-Apr-14 04:58N 62°38' E 006°17'0 0.0
2017-Apr-14 04:28N 62°38' E 006°17'0 0.0
2017-Apr-14 03:58N 62°38' E 006°17'  
Track history (hours):
 
Tides and Currents Weather Stations Pressure Air Temp Water Temp Dewpoint Dewpoint Depression Visibility Wind Speed Wind Dir Waves Ship Positions

Os

Last reported at 2017-Apr-24 03:30 UTC. Time now 2017-Apr-24 03:37 UTC.
Position N 62°37' E 006°17'.

Length 64 m; draft 3.3 m.

Type: Passenger vessel. MMSI: 257066700.

Date/timePositionNaut miles runAvg speedWind from/ knotsBaromVisibWave heightAir tempDewpointWater temp
2017-Apr-24 03:30N 62°37' E 006°17'1 2.7
2017-Apr-24 03:00N 62°37' E 006°14'2 3.4
2017-Apr-24 02:30N 62°38' E 006°17'0 0.0
2017-Apr-24 02:00N 62°38' E 006°17'0 0.0
2017-Apr-24 01:30N 62°38' E 006°17'0 0.0
2017-Apr-24 01:00N 62°38' E 006°17'0 0.0
2017-Apr-24 00:30N 62°38' E 006°17'0 0.0
2017-Apr-24 00:00N 62°38' E 006°17'0 0.0
2017-Apr-23 23:30N 62°38' E 006°17'0 0.0
2017-Apr-23 23:00N 62°38' E 006°17'0 0.0
2017-Apr-23 22:30N 62°38' E 006°17'0 0.0
2017-Apr-23 22:00N 62°38' E 006°17'3 5.2
2017-Apr-23 21:29N 62°36' E 006°17'0 0.0
2017-Apr-23 20:59N 62°36' E 006°17'1 1.3
2017-Apr-23 20:30N 62°36' E 006°16'2 4.2
2017-Apr-23 20:00N 62°38' E 006°17'2 3.9
2017-Apr-23 19:30N 62°36' E 006°16'2 3.9
2017-Apr-23 19:00N 62°38' E 006°17'2 4.0
2017-Apr-23 18:30N 62°36' E 006°16'2 3.9
2017-Apr-23 17:59N 62°38' E 006°17'2 3.7
2017-Apr-23 17:30N 62°36' E 006°16'2 3.7
2017-Apr-23 17:00N 62°38' E 006°17'2 4.3
2017-Apr-23 16:30N 62°36' E 006°16'2 4.1
2017-Apr-23 15:59N 62°38' E 006°17'2 4.8
2017-Apr-23 15:30N 62°36' E 006°17'2 4.4
2017-Apr-23 15:00N 62°38' E 006°17'8 8.2
2017-Apr-23 14:00N 62°31' E 006°09'4 8.4
2017-Apr-23 13:30N 62°27' E 006°06'5 9.7
2017-Apr-23 13:00N 62°27' E 006°17'2 3.7
2017-Apr-23 12:27N 62°26' E 006°21'0 0.0
2017-Apr-23 11:58N 62°26' E 006°21'0 0.0
2017-Apr-23 11:31N 62°26' E 006°21'0 0.0
2017-Apr-23 10:58N 62°26' E 006°21'0 0.0
2017-Apr-23 10:31N 62°26' E 006°21'0 0.0
2017-Apr-23 09:58N 62°26' E 006°21'0 0.0
2017-Apr-23 09:28N 62°26' E 006°21'0 0.0
2017-Apr-23 08:58N 62°26' E 006°21'0 0.0
2017-Apr-23 08:28N 62°26' E 006°21'0 0.0
2017-Apr-23 07:58N 62°26' E 006°21'0 0.0
2017-Apr-23 07:28N 62°26' E 006°21'0 0.0
2017-Apr-23 06:58N 62°26' E 006°21'0 0.0
2017-Apr-23 06:31N 62°26' E 006°21'0 0.0
2017-Apr-23 06:01N 62°26' E 006°21'0 0.0
2017-Apr-23 05:30N 62°26' E 006°21'0 0.0
2017-Apr-23 05:00N 62°26' E 006°21'0 0.0
2017-Apr-23 04:31N 62°26' E 006°21'0 0.0
2017-Apr-23 04:00N 62°26' E 006°21'0 0.0
2017-Apr-23 03:27N 62°26' E 006°21'0 0.0
2017-Apr-23 03:01N 62°26' E 006°21'0 0.0
2017-Apr-23 02:27N 62°26' E 006°21'0 0.0
2017-Apr-23 02:01N 62°26' E 006°21'0 0.0
2017-Apr-23 01:28N 62°26' E 006°21'0 0.0
2017-Apr-23 01:00N 62°26' E 006°21'0 0.0
2017-Apr-23 00:30N 62°26' E 006°21'0 0.0
2017-Apr-23 00:00N 62°26' E 006°21'0 0.0
2017-Apr-22 23:27N 62°26' E 006°21'0 0.0
2017-Apr-22 23:01N 62°26' E 006°21'0 0.0
2017-Apr-22 22:31N 62°26' E 006°21'0 0.0
2017-Apr-22 22:00N 62°26' E 006°21'0 0.0
2017-Apr-22 21:30N 62°26' E 006°21'0 0.0
2017-Apr-22 21:00N 62°26' E 006°21'0 0.0
2017-Apr-22 20:30N 62°26' E 006°21'0 0.0
2017-Apr-22 20:00N 62°26' E 006°21'0 0.0
2017-Apr-22 19:30N 62°26' E 006°21'0 0.0
2017-Apr-22 19:00N 62°26' E 006°21'0 0.0
2017-Apr-22 18:30N 62°26' E 006°21'0 0.0
2017-Apr-22 18:00N 62°26' E 006°21'0 0.0
2017-Apr-22 17:30N 62°26' E 006°21'0 0.0
2017-Apr-22 17:00N 62°26' E 006°21'0 0.0
2017-Apr-22 16:30N 62°26' E 006°21'0 0.0
2017-Apr-22 16:00N 62°26' E 006°21'0 0.0
2017-Apr-22 15:31N 62°26' E 006°21'0 0.0
2017-Apr-22 15:00N 62°26' E 006°21'0 0.0
2017-Apr-22 14:30N 62°26' E 006°21'0 0.0
2017-Apr-22 13:30N 62°26' E 006°21'0 0.0
2017-Apr-22 13:00N 62°26' E 006°21'0 0.0
2017-Apr-22 12:30N 62°26' E 006°21'0 0.0
2017-Apr-22 12:00N 62°26' E 006°21'0 0.0
2017-Apr-22 11:30N 62°26' E 006°21'0 0.0
2017-Apr-22 11:00N 62°26' E 006°21'0 0.0
2017-Apr-22 10:30N 62°26' E 006°21'0 0.0
2017-Apr-22 10:00N 62°26' E 006°21'0 0.0
2017-Apr-22 09:30N 62°26' E 006°21'0 0.0
2017-Apr-22 09:00N 62°26' E 006°21'0 0.0
2017-Apr-22 08:30N 62°26' E 006°21'0 0.0
2017-Apr-22 08:00N 62°26' E 006°21'0 0.0
2017-Apr-22 07:30N 62°26' E 006°21'0 0.0
2017-Apr-22 07:00N 62°26' E 006°21'0 0.0
2017-Apr-22 06:30N 62°26' E 006°21'0 0.0
2017-Apr-22 06:00N 62°26' E 006°21'0 0.0
2017-Apr-22 05:30N 62°26' E 006°21'0 0.0
2017-Apr-22 05:00N 62°26' E 006°21'0 0.0
2017-Apr-22 04:30N 62°26' E 006°21'0 0.0
2017-Apr-22 04:00N 62°26' E 006°21'0 0.0
2017-Apr-22 03:30N 62°26' E 006°21'0 0.0
2017-Apr-22 03:00N 62°26' E 006°21'0 0.0
2017-Apr-22 02:30N 62°26' E 006°21'0 0.0
2017-Apr-22 02:00N 62°26' E 006°21'0 0.0
2017-Apr-22 01:30N 62°26' E 006°21'0 0.0
2017-Apr-22 01:00N 62°26' E 006°21'0 0.0
2017-Apr-22 00:30N 62°26' E 006°21'0 0.0
2017-Apr-22 00:00N 62°26' E 006°21'0 0.0
2017-Apr-21 23:30N 62°26' E 006°21'0 0.0
2017-Apr-21 23:00N 62°26' E 006°21'0 0.0
2017-Apr-21 22:30N 62°26' E 006°21'0 0.0
2017-Apr-21 22:00N 62°26' E 006°21'0 0.0
2017-Apr-21 21:30N 62°26' E 006°21'0 0.0
2017-Apr-21 21:00N 62°26' E 006°21'0 0.0
2017-Apr-21 20:30N 62°26' E 006°21'0 0.0
2017-Apr-21 20:00N 62°26' E 006°21'0 0.0
2017-Apr-21 19:30N 62°26' E 006°21'0 0.0
2017-Apr-21 19:00N 62°26' E 006°21'0 0.0
2017-Apr-21 18:30N 62°26' E 006°21'1 2.9
2017-Apr-21 18:00N 62°26' E 006°18'510.3
2017-Apr-21 17:30N 62°27' E 006°07'4 8.8
2017-Apr-21 17:00N 62°31' E 006°09'510.7
2017-Apr-21 16:30N 62°36' E 006°16'3 5.2
2017-Apr-21 16:00N 62°38' E 006°17'2 3.5
2017-Apr-21 15:31N 62°37' E 006°15'2 3.2
2017-Apr-21 14:59N 62°38' E 006°17'2 3.4
2017-Apr-21 14:30N 62°37' E 006°15'0 0.2
2017-Apr-21 13:30N 62°37' E 006°15'2 3.3
2017-Apr-21 13:00N 62°38' E 006°17'2 3.3
2017-Apr-21 12:30N 62°37' E 006°15'2 3.3
2017-Apr-21 12:00N 62°38' E 006°17'2 3.4
2017-Apr-21 11:30N 62°37' E 006°15'2 3.3
2017-Apr-21 11:00N 62°38' E 006°17'2 3.3
2017-Apr-21 10:30N 62°37' E 006°15'2 3.1
2017-Apr-21 09:59N 62°36' E 006°17'0 0.0
2017-Apr-21 09:29N 62°36' E 006°17'3 5.6
2017-Apr-21 09:00N 62°38' E 006°17'2 3.5
2017-Apr-21 08:30N 62°37' E 006°16'2 3.4
2017-Apr-21 08:00N 62°38' E 006°17'2 3.5
2017-Apr-21 07:30N 62°37' E 006°15'2 3.3
2017-Apr-21 07:00N 62°38' E 006°17'1 2.8
2017-Apr-21 06:30N 62°37' E 006°17'2 3.2
2017-Apr-21 06:00N 62°37' E 006°13'1 2.9
2017-Apr-21 05:30N 62°36' E 006°16'2 4.1
2017-Apr-21 05:00N 62°38' E 006°17'2 3.4
2017-Apr-21 04:31N 62°37' E 006°15'1 1.5
2017-Apr-21 03:59N 62°37' E 006°14'2 3.1
2017-Apr-21 03:30N 62°37' E 006°17'1 2.9
2017-Apr-21 03:00N 62°37' E 006°14'2 3.4
2017-Apr-21 02:29N 62°38' E 006°17'0 0.0
2017-Apr-21 01:59N 62°38' E 006°17'0 0.0
2017-Apr-21 01:29N 62°38' E 006°17'0 0.0
2017-Apr-21 00:59N 62°38' E 006°17'0 0.0
2017-Apr-21 00:29N 62°38' E 006°17'0 0.0
2017-Apr-20 23:59N 62°38' E 006°17'0 0.0
2017-Apr-20 23:29N 62°38' E 006°17'0 0.0
2017-Apr-20 22:59N 62°38' E 006°17'0 0.0
2017-Apr-20 22:29N 62°38' E 006°17'0 0.0
2017-Apr-20 21:59N 62°38' E 006°17'2 3.4
2017-Apr-20 21:30N 62°37' E 006°15'1 1.4
2017-Apr-20 21:00N 62°37' E 006°13'2 3.6
2017-Apr-20 20:30N 62°37' E 006°17'2 3.5
2017-Apr-20 20:00N 62°37' E 006°13'2 3.5
2017-Apr-20 19:30N 62°37' E 006°17'2 3.4
2017-Apr-20 18:59N 62°37' E 006°13'2 3.5
2017-Apr-20 18:30N 62°37' E 006°17'1 2.1
2017-Apr-20 18:00N 62°38' E 006°17'2 3.3
2017-Apr-20 17:30N 62°37' E 006°15'2 3.2
2017-Apr-20 17:00N 62°38' E 006°17'2 3.4
2017-Apr-20 16:30N 62°37' E 006°15'2 3.4
2017-Apr-20 16:00N 62°38' E 006°17'2 4.4
2017-Apr-20 15:30N 62°36' E 006°16'2 4.3
2017-Apr-20 14:58N 62°38' E 006°17'0 0.0
2017-Apr-20 13:59N 62°38' E 006°17'2 3.4
2017-Apr-20 13:30N 62°37' E 006°15'2 3.2
2017-Apr-20 13:00N 62°38' E 006°17'2 3.5
2017-Apr-20 12:30N 62°37' E 006°15'2 3.4
2017-Apr-20 12:00N 62°38' E 006°17'2 3.2
2017-Apr-20 11:30N 62°37' E 006°15'2 3.3
2017-Apr-20 11:00N 62°38' E 006°17'2 3.2
2017-Apr-20 10:30N 62°37' E 006°15'1 2.8
2017-Apr-20 09:59N 62°36' E 006°17'0 0.0
2017-Apr-20 09:29N 62°36' E 006°17'3 5.5
2017-Apr-20 09:00N 62°38' E 006°17'2 3.2
2017-Apr-20 08:30N 62°37' E 006°15'2 3.3
2017-Apr-20 08:00N 62°38' E 006°17'2 3.4
2017-Apr-20 07:30N 62°37' E 006°15'2 3.4
2017-Apr-20 07:00N 62°38' E 006°17'1 2.9
2017-Apr-20 06:30N 62°37' E 006°17'2 3.1
2017-Apr-20 05:59N 62°37' E 006°13'1 2.8
2017-Apr-20 05:30N 62°36' E 006°16'2 3.7
2017-Apr-20 05:00N 62°38' E 006°17'2 3.4
2017-Apr-20 04:31N 62°37' E 006°16'1 1.7
2017-Apr-20 04:00N 62°37' E 006°14'1 2.7
2017-Apr-20 03:30N 62°37' E 006°17'1 2.8
2017-Apr-20 03:00N 62°37' E 006°14'2 3.1
2017-Apr-20 02:28N 62°38' E 006°17'0 0.0
2017-Apr-20 02:01N 62°38' E 006°17'0 0.0
2017-Apr-20 01:28N 62°38' E 006°17'0 0.0
2017-Apr-20 00:58N 62°38' E 006°17'0 0.0
2017-Apr-20 00:28N 62°38' E 006°17'0 0.0
2017-Apr-19 23:58N 62°38' E 006°17'0 0.0
2017-Apr-19 23:28N 62°38' E 006°17'0 0.0
2017-Apr-19 22:58N 62°38' E 006°17'0 0.0
2017-Apr-19 22:28N 62°38' E 006°17'0 0.0
2017-Apr-19 21:58N 62°38' E 006°17'2 3.7
2017-Apr-19 21:30N 62°37' E 006°14'1 1.1
2017-Apr-19 21:00N 62°37' E 006°13'2 3.4
2017-Apr-19 20:30N 62°37' E 006°17'2 3.3
2017-Apr-19 20:00N 62°37' E 006°13'2 3.3
2017-Apr-19 19:30N 62°37' E 006°17'2 3.4
2017-Apr-19 19:00N 62°37' E 006°13'2 3.3
2017-Apr-19 18:30N 62°37' E 006°17'1 2.8
2017-Apr-19 18:00N 62°38' E 006°17'2 4.5
2017-Apr-19 17:30N 62°36' E 006°16'2 4.2
2017-Apr-19 16:58N 62°38' E 006°17'2 3.6
2017-Apr-19 16:30N 62°37' E 006°15'2 3.3
2017-Apr-19 16:00N 62°38' E 006°17'2 3.4
2017-Apr-19 15:30N 62°37' E 006°15'2 3.3
2017-Apr-19 15:00N 62°38' E 006°17'2 3.4
2017-Apr-19 14:30N 62°37' E 006°15'0 0.1
2017-Apr-19 13:30N 62°37' E 006°15'2 3.4
2017-Apr-19 13:00N 62°38' E 006°17'2 3.3
2017-Apr-19 12:30N 62°37' E 006°15'2 3.2
2017-Apr-19 12:00N 62°38' E 006°17'2 3.3
2017-Apr-19 11:30N 62°37' E 006°15'2 3.0
2017-Apr-19 10:58N 62°36' E 006°17'0 0.3
2017-Apr-19 10:29N 62°36' E 006°17'4 9.2
2017-Apr-19 10:00N 62°32' E 006°12'4 7.8
2017-Apr-19 09:30N 62°35' E 006°15'3 6.0
2017-Apr-19 09:00N 62°38' E 006°17'2 3.3
2017-Apr-19 08:30N 62°37' E 006°15'2 3.2
2017-Apr-19 08:00N 62°38' E 006°17'2 3.6
2017-Apr-19 07:30N 62°37' E 006°16'2 3.4
2017-Apr-19 07:00N 62°38' E 006°17'2 3.1
2017-Apr-19 06:30N 62°37' E 006°17'2 2.9
2017-Apr-19 05:59N 62°37' E 006°13'1 2.9
2017-Apr-19 05:30N 62°36' E 006°16'2 3.9
2017-Apr-19 05:00N 62°38' E 006°17'2 3.4
2017-Apr-19 04:30N 62°37' E 006°15'1 1.9
2017-Apr-19 04:00N 62°37' E 006°13'2 3.4
2017-Apr-19 03:30N 62°37' E 006°17'2 3.4
2017-Apr-19 03:00N 62°37' E 006°13'2 3.8
2017-Apr-19 02:30N 62°38' E 006°17'0 0.0
2017-Apr-19 02:01N 62°38' E 006°17'0 0.0
2017-Apr-19 01:30N 62°38' E 006°17'0 0.0
2017-Apr-19 01:00N 62°38' E 006°17'0 0.0
2017-Apr-19 00:28N 62°38' E 006°17'0 0.0
2017-Apr-19 00:00N 62°38' E 006°17'0 0.0
2017-Apr-18 23:27N 62°38' E 006°17'0 0.0
2017-Apr-18 23:01N 62°38' E 006°17'0 0.0
2017-Apr-18 22:30N 62°38' E 006°17'0 0.0
2017-Apr-18 22:00N 62°38' E 006°17'2 3.3
2017-Apr-18 21:30N 62°37' E 006°14'1 1.0
2017-Apr-18 20:59N 62°37' E 006°13'2 3.6
2017-Apr-18 20:30N 62°37' E 006°17'2 3.4
2017-Apr-18 20:00N 62°37' E 006°13'2 3.4
2017-Apr-18 19:30N 62°37' E 006°17'2 3.4
2017-Apr-18 18:59N 62°37' E 006°13'2 3.5
2017-Apr-18 18:30N 62°37' E 006°17'1 2.1
2017-Apr-18 18:00N 62°38' E 006°17'2 3.3
2017-Apr-18 17:30N 62°37' E 006°15'2 3.4
2017-Apr-18 17:00N 62°38' E 006°17'2 3.2
2017-Apr-18 16:30N 62°37' E 006°15'2 3.4
2017-Apr-18 16:00N 62°38' E 006°17'2 3.5
2017-Apr-18 15:30N 62°37' E 006°16'2 3.6
2017-Apr-18 15:00N 62°38' E 006°17'2 3.3
2017-Apr-18 14:30N 62°37' E 006°16'0 0.2
2017-Apr-18 13:30N 62°37' E 006°15'2 3.2
2017-Apr-18 13:00N 62°38' E 006°17'2 3.2
2017-Apr-18 12:30N 62°37' E 006°15'2 3.2
2017-Apr-18 12:00N 62°38' E 006°17'2 3.3
2017-Apr-18 11:30N 62°37' E 006°15'2 3.3
2017-Apr-18 11:00N 62°38' E 006°17'2 3.3
2017-Apr-18 10:30N 62°37' E 006°15'1 2.8
2017-Apr-18 10:00N 62°36' E 006°17'0 0.1
2017-Apr-18 09:28N 62°36' E 006°17'3 5.5
2017-Apr-18 09:00N 62°38' E 006°17'2 3.1
2017-Apr-18 08:30N 62°37' E 006°15'2 3.2
2017-Apr-18 08:00N 62°38' E 006°17'2 3.3
2017-Apr-18 07:30N 62°37' E 006°15'2 3.3
2017-Apr-18 07:00N 62°38' E 006°17'1 3.0
2017-Apr-18 06:30N 62°37' E 006°17'2 3.3
2017-Apr-18 05:59N 62°37' E 006°13'1 2.9
2017-Apr-18 05:30N 62°36' E 006°16'2 4.0
2017-Apr-18 05:00N 62°38' E 006°17'2 3.3
2017-Apr-18 04:30N 62°37' E 006°15'1 1.6
2017-Apr-18 04:00N 62°37' E 006°13'2 3.3
2017-Apr-18 03:30N 62°37' E 006°17'2 3.1
2017-Apr-18 03:00N 62°37' E 006°13'2 3.7
2017-Apr-18 02:29N 62°38' E 006°17'0 0.0
2017-Apr-18 01:59N 62°38' E 006°17'0 0.0
2017-Apr-18 01:29N 62°38' E 006°17'0 0.0
2017-Apr-18 00:59N 62°38' E 006°17'0 0.0
2017-Apr-18 00:29N 62°38' E 006°17'0 0.0
2017-Apr-17 23:59N 62°38' E 006°17'0 0.0
2017-Apr-17 23:29N 62°38' E 006°17'0 0.0
2017-Apr-17 22:59N 62°38' E 006°17'0 0.0
2017-Apr-17 22:29N 62°38' E 006°17'2 3.4
2017-Apr-17 22:00N 62°37' E 006°14'2 3.9
2017-Apr-17 21:29N 62°36' E 006°17'0 0.0
2017-Apr-17 20:59N 62°36' E 006°17'1 1.6
2017-Apr-17 20:30N 62°36' E 006°16'2 4.0
2017-Apr-17 20:00N 62°38' E 006°17'2 4.1
2017-Apr-17 19:29N 62°36' E 006°16'2 4.1
2017-Apr-17 18:59N 62°38' E 006°17'2 4.5
2017-Apr-17 18:30N 62°36' E 006°16'2 4.3
2017-Apr-17 18:00N 62°38' E 006°17'2 4.1
2017-Apr-17 17:30N 62°36' E 006°16'2 4.0
2017-Apr-17 17:00N 62°38' E 006°17'2 3.6
2017-Apr-17 16:29N 62°36' E 006°16'2 3.7
2017-Apr-17 15:59N 62°38' E 006°17'2 3.4
2017-Apr-17 15:30N 62°37' E 006°15'2 3.3
2017-Apr-17 15:00N 62°38' E 006°17'0 0.0
2017-Apr-17 14:00N 62°38' E 006°17'2 3.6
2017-Apr-17 13:30N 62°36' E 006°16'2 3.6
2017-Apr-17 13:00N 62°38' E 006°17'2 3.5
2017-Apr-17 12:30N 62°37' E 006°16'2 3.2
2017-Apr-17 12:00N 62°38' E 006°17'2 3.3
2017-Apr-17 11:30N 62°37' E 006°15'2 3.3
2017-Apr-17 11:00N 62°38' E 006°17'3 5.3
2017-Apr-17 10:30N 62°36' E 006°17'0 0.0
2017-Apr-17 09:59N 62°36' E 006°17'1 1.5
2017-Apr-17 09:30N 62°36' E 006°16'2 4.0
2017-Apr-17 09:00N 62°38' E 006°17'2 4.0
2017-Apr-17 08:30N 62°36' E 006°16'2 4.0
2017-Apr-17 08:00N 62°38' E 006°17'2 3.8
2017-Apr-17 07:29N 62°36' E 006°16'2 3.8
2017-Apr-17 06:59N 62°38' E 006°17'2 4.3
2017-Apr-17 06:30N 62°36' E 006°16'2 4.1
2017-Apr-17 05:59N 62°38' E 006°17'0 0.0
2017-Apr-17 05:29N 62°38' E 006°17'0 0.0
2017-Apr-17 04:59N 62°38' E 006°17'0 0.0
2017-Apr-17 04:29N 62°38' E 006°17'0 0.0
2017-Apr-17 03:59N 62°38' E 006°17'0 0.0
2017-Apr-17 03:29N 62°38' E 006°17'0 0.0
2017-Apr-17 02:59N 62°38' E 006°17'0 0.0
2017-Apr-17 02:29N 62°38' E 006°17'0 0.0
2017-Apr-17 01:59N 62°38' E 006°17'0 0.0
2017-Apr-17 01:29N 62°38' E 006°17'0 0.0
2017-Apr-17 00:59N 62°38' E 006°17'0 0.0
2017-Apr-17 00:29N 62°38' E 006°17'0 0.0
2017-Apr-16 23:59N 62°38' E 006°17'0 0.0
2017-Apr-16 23:29N 62°38' E 006°17'0 0.0
2017-Apr-16 22:59N 62°38' E 006°17'0 0.0
2017-Apr-16 22:29N 62°38' E 006°17'2 3.4
2017-Apr-16 22:00N 62°37' E 006°14'2 4.0
2017-Apr-16 21:30N 62°36' E 006°17'0 0.0
2017-Apr-16 21:00N 62°36' E 006°17'1 1.5
2017-Apr-16 20:30N 62°36' E 006°16'2 4.1
2017-Apr-16 20:00N 62°38' E 006°17'2 4.3
2017-Apr-16 19:30N 62°36' E 006°16'2 4.3
2017-Apr-16 19:00N 62°38' E 006°17'2 4.2
2017-Apr-16 18:31N 62°36' E 006°16'2 4.1
2017-Apr-16 18:00N 62°38' E 006°17'2 4.2
2017-Apr-16 17:30N 62°36' E 006°16'2 4.0
2017-Apr-16 17:00N 62°38' E 006°17'2 4.5
2017-Apr-16 16:30N 62°36' E 006°16'2 4.4
2017-Apr-16 16:00N 62°38' E 006°17'2 3.8
2017-Apr-16 15:29N 62°36' E 006°16'2 4.0
2017-Apr-16 15:00N 62°38' E 006°17'2 4.3
2017-Apr-16 14:30N 62°36' E 006°16'0 0.1
2017-Apr-16 13:30N 62°36' E 006°16'2 4.2
2017-Apr-16 13:00N 62°38' E 006°17'2 3.6
2017-Apr-16 12:30N 62°37' E 006°16'2 3.6
2017-Apr-16 12:00N 62°38' E 006°17'2 3.5
2017-Apr-16 11:30N 62°36' E 006°16'2 3.6
2017-Apr-16 10:59N 62°38' E 006°17'3 5.3
2017-Apr-16 10:29N 62°36' E 006°17'0 0.0
2017-Apr-16 09:59N 62°36' E 006°17'1 1.4
2017-Apr-16 09:30N 62°36' E 006°16'2 4.2
2017-Apr-16 09:00N 62°38' E 006°17'2 3.7
2017-Apr-16 08:30N 62°36' E 006°16'2 3.8
2017-Apr-16 08:00N 62°38' E 006°17'2 3.7
2017-Apr-16 07:30N 62°36' E 006°16'2 3.7
2017-Apr-16 07:00N 62°38' E 006°17'2 4.0
2017-Apr-16 06:30N 62°36' E 006°16'2 3.9
2017-Apr-16 05:59N 62°38' E 006°17'0 0.0
2017-Apr-16 05:29N 62°38' E 006°17'0 0.0
2017-Apr-16 04:59N 62°38' E 006°17'0 0.0
2017-Apr-16 04:29N 62°38' E 006°17'0 0.0
2017-Apr-16 03:59N 62°38' E 006°17'0 0.0
2017-Apr-16 03:29N 62°38' E 006°17'0 0.0
2017-Apr-16 02:58N 62°38' E 006°17'0 0.0
2017-Apr-16 02:28N 62°38' E 006°17'0 0.0
2017-Apr-16 01:58N 62°38' E 006°17'0 0.0
2017-Apr-16 01:28N 62°38' E 006°17'0 0.0
2017-Apr-16 00:58N 62°38' E 006°17'0 0.0
2017-Apr-16 00:28N 62°38' E 006°17'0 0.0
2017-Apr-15 23:58N 62°38' E 006°17'0 0.0
2017-Apr-15 23:28N 62°38' E 006°17'0 0.0
2017-Apr-15 22:58N 62°38' E 006°17'0 0.0
2017-Apr-15 22:28N 62°38' E 006°17'0 0.0
2017-Apr-15 21:59N 62°38' E 006°17'2 4.5
2017-Apr-15 21:30N 62°36' E 006°16'2 4.3
2017-Apr-15 21:00N 62°38' E 006°17'2 4.1
2017-Apr-15 20:30N 62°36' E 006°16'2 4.2
2017-Apr-15 20:00N 62°38' E 006°17'2 4.2
2017-Apr-15 19:30N 62°36' E 006°16'2 4.2
2017-Apr-15 19:00N 62°38' E 006°17'2 4.0
2017-Apr-15 18:30N 62°36' E 006°16'2 4.1
2017-Apr-15 18:00N 62°38' E 006°17'2 3.4
2017-Apr-15 17:30N 62°37' E 006°15'2 3.3
2017-Apr-15 17:00N 62°38' E 006°17'3 5.5
2017-Apr-15 16:31N 62°36' E 006°17'0 0.0
2017-Apr-15 16:01N 62°36' E 006°17'1 1.1
2017-Apr-15 15:30N 62°36' E 006°16'2 4.4
2017-Apr-15 15:00N 62°38' E 006°17'2 4.3
2017-Apr-15 14:30N 62°36' E 006°16'0 0.1
2017-Apr-15 13:30N 62°36' E 006°16'2 4.0
2017-Apr-15 13:01N 62°38' E 006°17'2 3.2
2017-Apr-15 12:30N 62°37' E 006°16'2 3.2
2017-Apr-15 12:00N 62°38' E 006°17'2 3.5
2017-Apr-15 11:30N 62°37' E 006°14'2 3.5
2017-Apr-15 11:00N 62°38' E 006°17'4 7.8
2017-Apr-15 10:30N 62°34' E 006°14'1 2.6
2017-Apr-15 10:00N 62°33' E 006°13'4 7.0
2017-Apr-15 09:30N 62°36' E 006°16'2 3.8
2017-Apr-15 08:59N 62°38' E 006°17'2 4.6
2017-Apr-15 08:31N 62°36' E 006°16'2 4.4
2017-Apr-15 08:00N 62°38' E 006°17'2 3.7
2017-Apr-15 07:30N 62°36' E 006°16'2 3.8
2017-Apr-15 07:00N 62°38' E 006°17'2 3.9
2017-Apr-15 06:30N 62°36' E 006°16'2 3.9
2017-Apr-15 06:00N 62°38' E 006°17'2 3.9
2017-Apr-15 05:30N 62°36' E 006°16'2 4.0
2017-Apr-15 05:00N 62°38' E 006°17'0 0.0
2017-Apr-15 04:30N 62°38' E 006°17'0 0.0
2017-Apr-15 04:00N 62°38' E 006°17'0 0.0
2017-Apr-15 03:30N 62°38' E 006°17'0 0.0
2017-Apr-15 02:59N 62°38' E 006°17'0 0.0
2017-Apr-15 02:29N 62°38' E 006°17'0 0.0
2017-Apr-15 01:59N 62°38' E 006°17'0 0.0
2017-Apr-15 01:29N 62°38' E 006°17'0 0.0
2017-Apr-15 00:59N 62°38' E 006°17'0 0.0
2017-Apr-15 00:29N 62°38' E 006°17'0 0.0
2017-Apr-14 23:59N 62°38' E 006°17'0 0.0
2017-Apr-14 23:29N 62°38' E 006°17'0 0.0
2017-Apr-14 22:59N 62°38' E 006°17'0 0.0
2017-Apr-14 22:29N 62°38' E 006°17'0 0.0
2017-Apr-14 21:59N 62°38' E 006°17'3 5.4
2017-Apr-14 21:29N 62°36' E 006°17'0 0.0
2017-Apr-14 20:59N 62°36' E 006°17'1 1.4
2017-Apr-14 20:31N 62°36' E 006°16'2 4.2
2017-Apr-14 20:00N 62°38' E 006°17'2 4.0
2017-Apr-14 19:30N 62°36' E 006°16'2 4.1
2017-Apr-14 19:00N 62°38' E 006°17'2 3.9
2017-Apr-14 18:30N 62°36' E 006°16'2 3.9
2017-Apr-14 18:00N 62°38' E 006°17'2 4.0
2017-Apr-14 17:30N 62°36' E 006°16'2 4.0
2017-Apr-14 17:00N 62°38' E 006°17'2 3.9
2017-Apr-14 16:30N 62°36' E 006°16'2 3.8
2017-Apr-14 15:59N 62°38' E 006°17'2 4.2
2017-Apr-14 15:30N 62°36' E 006°16'2 4.0
2017-Apr-14 15:00N 62°38' E 006°17'2 4.3
2017-Apr-14 14:30N 62°36' E 006°16'0 0.0
2017-Apr-14 13:30N 62°36' E 006°16'2 4.3
2017-Apr-14 13:00N 62°38' E 006°17'2 3.6
2017-Apr-14 12:30N 62°36' E 006°16'2 3.6
2017-Apr-14 12:00N 62°38' E 006°17'2 3.5
2017-Apr-14 11:30N 62°37' E 006°16'2 3.5
2017-Apr-14 11:00N 62°38' E 006°17'3 5.1
2017-Apr-14 10:29N 62°36' E 006°17'0 0.0
2017-Apr-14 09:59N 62°36' E 006°17'1 1.3
2017-Apr-14 09:30N 62°36' E 006°16'2 4.3
2017-Apr-14 09:00N 62°38' E 006°17'2 4.0
2017-Apr-14 08:30N 62°36' E 006°16'2 4.0
2017-Apr-14 07:59N 62°38' E 006°17'2 3.8
2017-Apr-14 07:30N 62°36' E 006°16'2 3.6
2017-Apr-14 07:00N 62°38' E 006°17'2 3.9
2017-Apr-14 06:30N 62°36' E 006°16'2 3.6
2017-Apr-14 05:58N 62°38' E 006°17'0 0.0
2017-Apr-14 05:28N 62°38' E 006°17'0 0.0
2017-Apr-14 04:58N 62°38' E 006°17'0 0.0
2017-Apr-14 04:28N 62°38' E 006°17'0 0.0
2017-Apr-14 03:58N 62°38' E 006°17'  

Dump ship's entire track history